createdAt,value
2019-02-05T11:00:26.367Z,84.80
2019-02-05T11:02:57.796Z,57.40
2019-02-05T11:12:56.968Z,73.10
2019-02-05T11:15:32.009Z,76.20
2019-02-05T11:18:02.367Z,80.60
2019-02-05T11:20:32.624Z,85.70
2019-02-05T11:23:02.877Z,86.40
2019-02-05T11:25:33.036Z,87.60
2019-02-05T11:28:03.205Z,87.70
2019-02-05T11:30:41.670Z,89.50
2019-02-05T11:33:12.276Z,89.70
2019-02-05T11:35:42.466Z,91.20
2019-02-05T11:38:13.192Z,94.30
2019-02-05T11:40:43.282Z,98.70
2019-02-05T12:03:21.867Z,87.40
2019-02-05T12:05:52.033Z,87.10
2019-02-05T12:08:22.125Z,87.50
2019-02-05T12:10:52.161Z,88.30
2019-02-05T12:13:22.250Z,86.10
2019-02-05T12:15:52.416Z,86.20
2019-02-05T12:18:22.786Z,86.00
2019-02-05T12:20:52.956Z,84.00
2019-02-05T12:23:23.002Z,85.40
2019-02-05T12:25:53.063Z,84.40
2019-02-05T12:28:23.131Z,83.50
2019-02-05T12:30:53.282Z,82.40
2019-02-05T12:33:23.426Z,82.30
2019-02-05T12:35:53.588Z,82.40
2019-02-05T12:38:23.584Z,85.80
2019-02-05T12:40:53.752Z,85.80
2019-02-05T12:43:23.941Z,85.10
2019-02-05T12:45:54.110Z,85.10
2019-02-05T12:48:24.177Z,85.30
2019-02-05T12:50:54.345Z,85.60
2019-02-05T12:53:24.356Z,86.00
2019-02-05T12:55:54.508Z,87.30
2019-02-05T12:58:24.561Z,89.40
2019-02-05T13:00:59.393Z,88.40
2019-02-05T13:03:26.848Z,87.50
2019-02-05T13:05:56.952Z,88.10
2019-02-05T13:08:27.131Z,88.20
2019-02-05T13:10:57.217Z,87.50
2019-02-05T13:13:27.307Z,87.00
2019-02-05T13:15:57.390Z,88.20
2019-02-05T13:18:27.416Z,89.30
2019-02-05T13:20:57.446Z,90.30
2019-02-05T13:23:27.584Z,88.10
2019-02-05T13:25:57.852Z,89.30
2019-02-05T13:28:28.013Z,90.50
2019-02-05T13:31:07.740Z,91.70
2019-02-05T13:33:31.577Z,91.80
2019-02-05T13:36:01.720Z,91.10
2019-02-05T13:38:31.893Z,92.10
2019-02-05T13:41:01.928Z,91.80
2019-02-05T13:43:32.069Z,91.60
2019-02-05T13:46:02.170Z,91.70
2019-02-05T13:48:32.409Z,91.60
2019-02-05T13:51:02.504Z,91.00
2019-02-05T13:53:32.662Z,91.80
2019-02-05T13:56:05.260Z,92.10
2019-02-05T13:58:34.578Z,92.30
2019-02-05T14:01:05.506Z,92.40
2019-02-05T14:03:35.582Z,92.70
2019-02-05T14:06:05.772Z,93.70
2019-02-05T14:08:35.862Z,94.10
2019-02-05T14:11:06.024Z,93.60
2019-02-05T14:13:36.172Z,93.20
2019-02-05T14:16:06.540Z,93.30
2019-02-05T14:18:36.643Z,94.30
2019-02-05T14:21:06.772Z,94.80
2019-02-05T14:23:36.929Z,94.60
2019-02-05T14:26:07.035Z,95.90
2019-02-05T14:28:37.253Z,97.10
2019-02-05T14:31:07.481Z,96.80
2019-02-05T14:33:37.673Z,96.00
2019-02-05T14:36:07.947Z,95.30
2019-02-05T14:38:38.031Z,94.90
2019-02-05T14:41:08.541Z,95.50
2019-02-05T14:43:38.739Z,94.80
2019-02-05T14:46:08.843Z,95.10
2019-02-05T14:48:39.068Z,94.80
2019-02-05T14:51:09.345Z,95.20
2019-02-05T14:53:39.470Z,94.60
2019-02-05T14:56:09.599Z,95.80
2019-02-05T14:58:40.773Z,96.50
2019-02-05T15:01:10.957Z,98.00
2019-02-05T15:03:41.181Z,97.60
2019-02-05T15:06:11.395Z,97.00
2019-02-05T15:08:41.998Z,96.70
2019-02-05T15:11:13.390Z,96.90
2019-02-05T15:13:43.582Z,97.60
2019-02-05T15:16:13.695Z,97.50
2019-02-05T15:18:45.122Z,96.70
2019-02-05T15:21:15.690Z,96.60
2019-02-05T15:23:45.912Z,97.40
2019-02-05T15:26:16.144Z,98.10
2019-02-05T15:28:46.346Z,98.50
2019-02-05T15:31:16.959Z,99.20
2019-02-05T15:33:52.936Z,99.50
2019-02-05T15:36:31.713Z,99.60
2019-02-05T15:39:01.997Z,99.30
2019-02-05T15:41:33.142Z,99.20
2019-02-05T15:44:03.376Z,99.40
2019-02-05T15:46:34.176Z,99.20
2019-02-05T15:49:04.303Z,99.10
2019-02-05T15:51:34.545Z,98.90
2019-02-05T15:54:04.856Z,99.10
2019-02-05T15:56:35.070Z,99.40
2019-02-05T15:59:05.489Z,99.80
2019-02-05T16:01:35.727Z,99.90
2019-02-05T16:04:05.944Z,99.90
2019-02-05T16:06:36.163Z,99.90
2019-02-05T16:09:08.866Z,99.90
2019-02-05T16:11:39.087Z,99.90
2019-02-05T16:14:09.574Z,99.90
2019-02-05T16:16:39.820Z,99.90
2019-02-05T16:19:10.066Z,99.90
2019-02-05T16:21:40.274Z,99.90
2019-02-05T16:24:10.781Z,99.90
2019-02-05T16:26:41.053Z,99.90
2019-02-05T16:29:11.280Z,99.90
2019-02-05T16:31:41.524Z,99.90
2019-02-05T16:34:11.792Z,99.90
2019-02-05T16:36:44.477Z,99.90
2019-02-05T16:39:16.986Z,99.90
2019-02-05T16:41:47.302Z,99.90
2019-02-05T16:44:17.573Z,99.90
2019-02-05T16:46:47.848Z,99.90
2019-02-05T16:49:18.099Z,99.90
2019-02-05T16:51:48.389Z,99.90
2019-02-05T16:54:18.633Z,99.90
2019-02-05T16:56:48.968Z,99.90
2019-02-05T16:59:19.205Z,99.90
2019-02-05T17:01:49.471Z,99.90
2019-02-05T17:04:20.606Z,99.90
2019-02-05T17:06:50.893Z,99.90
2019-02-05T17:09:21.440Z,99.90
2019-02-05T17:11:51.689Z,99.90
2019-02-05T17:14:21.930Z,99.90
2019-02-05T17:16:52.194Z,99.90
2019-02-05T17:19:22.478Z,99.90
2019-02-05T17:21:52.726Z,99.90
2019-02-05T17:24:23.074Z,99.90
2019-02-05T17:26:53.312Z,99.90
2019-02-05T17:29:23.570Z,99.90
2019-02-05T17:31:53.814Z,99.90
2019-02-05T17:34:24.112Z,99.90
2019-02-05T17:36:54.804Z,99.90
2019-02-05T17:39:25.055Z,99.90
2019-02-05T17:41:55.332Z,99.90
2019-02-05T17:44:25.593Z,99.90
2019-02-05T17:46:58.090Z,99.90
2019-02-05T17:49:28.052Z,99.90
2019-02-05T17:51:58.368Z,99.90
2019-02-05T17:54:28.621Z,99.90
2019-02-05T17:56:58.908Z,99.90
2019-02-05T17:59:29.455Z,99.90
2019-02-05T18:01:59.780Z,99.90
2019-02-05T18:04:30.411Z,99.90
2019-02-05T18:07:03.606Z,99.90
2019-02-05T18:09:34.063Z,99.90
2019-02-05T18:12:07.098Z,99.90
2019-02-05T18:14:37.789Z,99.90
2019-02-05T18:17:08.460Z,99.90
2019-02-05T18:19:38.799Z,99.90
2019-02-05T18:22:11.018Z,99.90
2019-02-05T18:24:43.199Z,99.90
2019-02-05T18:27:13.590Z,99.90
2019-02-05T18:29:45.150Z,99.90
2019-02-05T18:32:17.236Z,99.90
2019-02-05T18:34:48.001Z,99.90
2019-02-05T18:37:20.856Z,99.90
2019-02-05T18:39:51.168Z,99.90
2019-02-05T18:42:21.798Z,99.90
2019-02-05T18:44:53.250Z,99.90
2019-02-05T18:47:23.966Z,99.90
2019-02-05T18:49:54.957Z,99.90
2019-02-05T18:52:25.461Z,99.90
2019-02-05T18:54:57.943Z,99.90
2019-02-05T18:57:30.898Z,99.90
2019-02-05T19:00:01.626Z,99.90
2019-02-05T19:02:32.167Z,99.90
2019-02-05T19:05:04.536Z,99.90
2019-02-05T19:07:37.365Z,99.90
2019-02-05T19:10:09.306Z,99.90
2019-02-05T19:12:41.938Z,99.90
2019-02-05T19:15:17.946Z,99.90
2019-02-05T19:17:49.708Z,99.90
2019-02-05T19:20:25.425Z,99.90
2019-02-05T19:22:56.585Z,99.90
2019-02-05T19:25:46.883Z,99.90
2019-02-05T19:28:37.680Z,99.90
2019-02-05T19:31:26.789Z,99.90
2019-02-05T19:33:57.788Z,99.90
2019-02-05T19:36:29.288Z,99.90
2019-02-05T19:38:59.951Z,99.90
2019-02-05T19:41:30.650Z,99.90
2019-02-05T19:44:01.665Z,99.90
2019-02-05T19:46:48.566Z,99.90
2019-02-05T19:49:24.603Z,99.90
2019-02-05T19:51:55.672Z,99.90
2019-02-05T19:54:27.027Z,99.90
2019-02-05T19:57:00.082Z,99.90
2019-02-05T19:59:31.700Z,99.90
2019-02-05T20:02:03.422Z,99.90
2019-02-05T20:04:36.716Z,99.90
2019-02-05T20:07:09.933Z,99.90
2019-02-05T20:09:40.845Z,99.90
2019-02-05T20:12:11.398Z,99.90
2019-02-05T20:14:44.983Z,99.90
2019-02-05T20:17:16.226Z,99.90
2019-02-05T20:19:47.365Z,99.90
2019-02-05T20:22:19.216Z,99.90
2019-02-05T20:24:50.588Z,99.90
2019-02-05T20:27:22.575Z,99.90
2019-02-05T20:29:55.247Z,99.90
2019-02-05T20:32:31.140Z,99.90
2019-02-05T20:35:02.070Z,99.90
2019-02-05T20:37:32.443Z,99.90
2019-02-05T20:40:07.182Z,99.90
2019-02-05T20:42:37.580Z,99.90
2019-02-05T20:45:10.498Z,99.90
2019-02-05T20:47:41.173Z,99.90
2019-02-05T20:50:16.505Z,99.90
2019-02-05T20:52:48.354Z,99.90
2019-02-05T20:55:19.195Z,99.90
2019-02-05T20:57:52.084Z,99.90
2019-02-05T21:00:22.711Z,99.90
2019-02-05T21:02:53.025Z,99.90
2019-02-05T21:05:24.131Z,99.90
2019-02-05T21:07:57.002Z,99.90
2019-02-05T21:10:27.289Z,99.90
2019-02-05T21:12:58.185Z,99.90
2019-02-05T21:15:28.654Z,99.90
2019-02-05T21:17:58.917Z,99.90
2019-02-05T21:20:31.951Z,99.90
2019-02-05T21:23:04.191Z,99.90
2019-02-05T21:25:34.466Z,99.90
2019-02-05T21:28:05.394Z,99.90
2019-02-05T21:30:36.160Z,99.90
2019-02-05T21:33:06.455Z,99.90
2019-02-05T21:35:37.957Z,99.90
2019-02-05T21:38:08.255Z,99.90
2019-02-05T21:40:38.839Z,99.90
2019-02-05T21:43:10.939Z,99.90
2019-02-05T21:45:41.194Z,99.90
2019-02-05T21:48:11.930Z,99.90
2019-02-05T21:50:42.470Z,99.90
2019-02-05T21:53:12.811Z,99.90
2019-02-05T21:55:43.016Z,99.90
2019-02-05T21:58:14.376Z,99.90
2019-02-05T22:00:44.670Z,99.90
2019-02-05T22:03:15.147Z,99.90
2019-02-05T22:05:45.702Z,99.90
2019-02-05T22:08:15.915Z,99.90
2019-02-05T22:10:46.199Z,99.90
2019-02-05T22:13:16.414Z,99.90
2019-02-05T22:15:46.620Z,99.90
2019-02-05T22:18:16.835Z,99.90
2019-02-05T22:20:47.066Z,99.90
2019-02-05T22:23:17.625Z,99.90
2019-02-05T22:25:48.080Z,99.90
2019-02-05T22:28:20.559Z,99.90
2019-02-05T22:30:50.114Z,99.90
2019-02-05T22:33:20.336Z,99.90
2019-02-05T22:35:50.528Z,99.90
2019-02-05T22:38:20.718Z,99.90
2019-02-05T22:40:50.913Z,99.90
2019-02-05T22:43:22.282Z,99.90
2019-02-05T22:45:52.476Z,99.90
2019-02-05T22:48:22.644Z,99.90
2019-02-05T22:50:52.800Z,99.90
2019-02-05T22:53:23.012Z,99.90
2019-02-05T22:55:53.510Z,99.90
2019-02-05T22:58:23.978Z,99.90
2019-02-05T23:01:20.338Z,99.90
2019-02-05T23:03:58.688Z,99.90
2019-02-05T23:06:58.078Z,99.90
2019-02-05T23:10:07.938Z,99.90
2019-02-05T23:12:48.374Z,99.90
2019-02-05T23:15:23.272Z,99.90
2019-02-05T23:17:53.442Z,99.90
2019-02-05T23:20:24.117Z,99.90
2019-02-05T23:22:57.108Z,99.90
2019-02-05T23:25:27.568Z,99.90
2019-02-05T23:27:57.766Z,99.90
2019-02-05T23:30:29.237Z,99.90
2019-02-05T23:32:59.705Z,99.90
2019-02-05T23:35:32.602Z,99.90
2019-02-05T23:38:01.950Z,99.90
2019-02-05T23:40:32.125Z,99.90
2019-02-05T23:43:02.239Z,99.90
2019-02-05T23:45:32.363Z,99.90
2019-02-05T23:48:02.725Z,99.90
2019-02-05T23:50:33.836Z,99.90
2019-02-05T23:53:04.009Z,99.90
2019-02-05T23:55:34.175Z,99.90
2019-02-05T23:58:04.728Z,99.90
